createdAt,value
2019-01-21T00:02:04.672Z,12.57
2019-01-21T00:04:36.299Z,11.50
2019-01-21T00:07:08.304Z,11.60
2019-01-21T00:09:39.908Z,11.60
2019-01-21T00:12:11.543Z,9.33
2019-01-21T00:14:43.187Z,11.17
2019-01-21T00:17:14.786Z,12.00
2019-01-21T00:19:46.404Z,11.80
2019-01-21T00:22:17.994Z,10.83
2019-01-21T00:24:49.603Z,11.73
2019-01-21T00:27:21.698Z,11.03
2019-01-21T00:29:54.378Z,11.50
2019-01-21T00:32:25.976Z,9.67
2019-01-21T00:34:57.622Z,10.63
2019-01-21T00:37:29.234Z,11.03
2019-01-21T00:40:01.243Z,10.30
2019-01-21T00:42:32.841Z,11.20
2019-01-21T00:45:06.188Z,9.37
2019-01-21T00:47:37.803Z,9.90
2019-01-21T00:50:12.220Z,8.87
2019-01-21T00:52:43.793Z,10.33
2019-01-21T00:55:15.376Z,9.10
2019-01-21T00:57:46.963Z,8.03
2019-01-21T01:00:22.447Z,9.20
2019-01-21T01:02:54.103Z,10.07
2019-01-21T01:05:26.472Z,9.70
2019-01-21T01:07:59.243Z,8.47
2019-01-21T01:10:30.813Z,9.90
2019-01-21T01:13:02.513Z,6.27
2019-01-21T01:15:34.136Z,10.53
2019-01-21T01:18:06.526Z,7.50
2019-01-21T01:20:38.119Z,6.37
2019-01-21T01:23:09.690Z,6.57
2019-01-21T01:25:41.853Z,5.53
2019-01-21T01:28:13.522Z,5.70
2019-01-21T01:30:45.588Z,6.10
2019-01-21T01:33:17.201Z,6.10
2019-01-21T01:35:48.789Z,6.10
2019-01-21T01:38:20.363Z,6.43
2019-01-21T01:40:51.988Z,6.87
2019-01-21T01:43:23.754Z,5.77
2019-01-21T01:45:55.339Z,6.57
2019-01-21T01:48:26.942Z,5.30
2019-01-21T01:50:58.551Z,7.53
2019-01-21T01:53:30.140Z,7.00
2019-01-21T01:56:01.782Z,6.47
2019-01-21T01:58:33.552Z,9.20
2019-01-21T02:01:05.142Z,7.80
2019-01-21T02:03:36.731Z,8.77
2019-01-21T02:06:08.329Z,6.40
2019-01-21T02:08:39.941Z,6.10
2019-01-21T02:11:11.517Z,7.13
2019-01-21T02:13:43.413Z,5.43
2019-01-21T02:16:15.211Z,5.87
2019-01-21T02:18:46.805Z,4.37
2019-01-21T02:21:18.394Z,5.50
2019-01-21T02:23:52.210Z,7.77
2019-01-21T02:26:24.811Z,6.03
2019-01-21T02:29:04.417Z,5.40
2019-01-21T02:32:14.533Z,7.50
2019-01-21T02:35:03.125Z,6.63
2019-01-21T02:38:05.729Z,8.20
2019-01-21T02:40:42.212Z,6.30
2019-01-21T02:43:42.727Z,8.30
2019-01-21T02:46:37.278Z,6.07
2019-01-21T02:49:28.602Z,5.67
2019-01-21T02:52:19.894Z,5.67
2019-01-21T02:55:17.112Z,5.27
2019-01-21T02:58:28.328Z,5.50
2019-01-21T03:01:21.714Z,4.50
2019-01-21T03:04:03.940Z,4.00
2019-01-21T03:06:52.226Z,5.23
2019-01-21T03:09:52.998Z,5.17
2019-01-21T03:13:02.917Z,4.77
2019-01-21T03:15:48.008Z,5.13
2019-01-21T03:19:00.662Z,5.50
2019-01-21T03:21:55.076Z,5.17
2019-01-21T03:24:40.069Z,5.33
2019-01-21T03:27:37.239Z,7.60
2019-01-21T03:30:48.704Z,8.43
2019-01-21T03:33:57.053Z,7.80
2019-01-21T03:36:56.114Z,7.87
2019-01-21T03:39:53.599Z,9.17
2019-01-21T03:42:47.760Z,5.47
2019-01-21T03:45:42.244Z,5.40
2019-01-21T03:48:21.685Z,9.90
2019-01-21T03:51:07.091Z,7.53
2019-01-21T03:53:53.339Z,5.57
2019-01-21T03:56:29.805Z,5.63
2019-01-21T03:59:21.529Z,4.90
2019-01-21T04:02:12.637Z,5.30
2019-01-21T04:05:11.296Z,4.13
2019-01-21T04:08:18.027Z,8.10
2019-01-21T04:11:32.601Z,9.03
2019-01-21T04:14:27.563Z,9.07
2019-01-21T04:17:16.271Z,7.97
2019-01-21T04:20:21.721Z,7.83
2019-01-21T04:23:12.929Z,9.33
2019-01-21T04:26:15.661Z,6.90
2019-01-21T04:28:55.332Z,6.67
2019-01-21T04:31:43.560Z,7.00
2019-01-21T04:34:42.872Z,7.43
2019-01-21T04:37:37.813Z,8.17
2019-01-21T04:40:28.747Z,7.93
2019-01-21T04:43:20.331Z,9.70
2019-01-21T04:46:05.765Z,7.77
2019-01-21T04:49:00.019Z,8.40
2019-01-21T04:52:07.888Z,8.43
2019-01-21T04:55:19.416Z,6.73
2019-01-21T04:58:33.552Z,6.47
2019-01-21T05:01:36.619Z,6.60
2019-01-21T05:04:15.716Z,6.13
2019-01-21T05:07:38.105Z,5.73
2019-01-21T05:10:31.978Z,7.13
2019-01-21T05:13:17.694Z,6.50
2019-01-21T05:16:30.376Z,7.63
2019-01-21T05:19:35.815Z,6.83
2019-01-21T05:22:21.496Z,7.67
2019-01-21T05:25:20.656Z,7.67
2019-01-21T05:28:19.995Z,8.10
2019-01-21T05:31:17.603Z,7.83
2019-01-21T05:34:00.049Z,7.87
2019-01-21T05:36:44.779Z,7.37
2019-01-21T05:39:51.279Z,6.73
2019-01-21T05:42:49.766Z,6.47
2019-01-21T05:46:07.342Z,6.97
2019-01-21T05:49:01.685Z,6.80
2019-01-21T05:52:11.009Z,11.40
2019-01-21T05:55:20.988Z,7.43
2019-01-21T05:58:18.473Z,6.90
2019-01-21T06:00:59.088Z,7.70
2019-01-21T06:03:38.119Z,8.27
2019-01-21T06:06:20.187Z,7.73
2019-01-21T06:09:08.523Z,8.47
2019-01-21T06:11:47.978Z,8.30
2019-01-21T06:14:53.299Z,10.83
2019-01-21T06:17:35.727Z,10.40
2019-01-21T06:20:19.004Z,11.70
2019-01-21T06:23:01.319Z,9.93
2019-01-21T06:25:58.395Z,10.63
2019-01-21T06:28:59.161Z,9.97
2019-01-21T06:31:50.679Z,8.40
2019-01-21T06:35:03.285Z,9.17
2019-01-21T06:37:48.457Z,9.10
2019-01-21T06:40:56.707Z,12.30
2019-01-21T06:43:52.875Z,10.13
2019-01-21T06:46:41.384Z,9.67
2019-01-21T06:49:38.861Z,9.27
2019-01-21T06:52:42.180Z,10.73
2019-01-21T06:55:42.583Z,11.30
2019-01-21T06:58:45.665Z,12.53
2019-01-21T07:01:40.226Z,11.60
2019-01-21T07:04:37.748Z,10.40
2019-01-21T07:07:36.645Z,11.77
2019-01-21T07:10:21.624Z,9.40
2019-01-21T07:13:32.680Z,9.77
2019-01-21T07:16:21.345Z,10.10
2019-01-21T07:19:20.388Z,9.60
2019-01-21T07:22:14.614Z,10.60
2019-01-21T07:25:00.178Z,10.00
2019-01-21T07:28:17.536Z,10.23
2019-01-21T07:30:56.692Z,9.13
2019-01-21T07:33:45.060Z,10.63
2019-01-21T07:36:24.361Z,11.27
2019-01-21T07:39:06.834Z,11.00
2019-01-21T07:42:09.150Z,9.43
2019-01-21T07:45:06.404Z,10.90
2019-01-21T07:48:14.521Z,11.20
2019-01-21T07:50:59.984Z,10.57
2019-01-21T07:54:02.304Z,10.53
2019-01-21T07:57:16.818Z,10.73
2019-01-21T08:00:01.898Z,15.30
2019-01-21T08:02:50.463Z,11.80
2019-01-21T08:05:51.846Z,10.60
2019-01-21T08:08:47.788Z,9.57
2019-01-21T08:11:43.652Z,14.33
2019-01-21T08:14:54.872Z,8.83
2019-01-21T08:17:57.181Z,13.30
2019-01-21T08:20:36.312Z,11.30
2019-01-21T08:23:24.783Z,15.47
2019-01-21T08:26:34.576Z,13.27
2019-01-21T08:29:18.080Z,14.03
2019-01-21T08:32:05.991Z,12.70
2019-01-21T08:34:57.495Z,11.23
2019-01-21T08:37:48.779Z,12.23
2019-01-21T08:40:30.827Z,10.80
2019-01-21T08:43:46.676Z,11.07
2019-01-21T08:46:40.628Z,11.03
2019-01-21T08:49:35.229Z,10.20
2019-01-21T08:52:28.964Z,12.20
2019-01-21T08:55:32.085Z,12.60
2019-01-21T08:58:34.626Z,11.27
2019-01-21T09:01:56.998Z,11.50
2019-01-21T09:05:04.811Z,11.47
2019-01-21T09:08:37.463Z,12.23
2019-01-21T09:11:35.275Z,10.93
2019-01-21T09:14:30.044Z,10.07
2019-01-21T09:17:21.538Z,12.10
2019-01-21T09:20:19.467Z,10.60
2019-01-21T09:23:21.613Z,9.27
2019-01-21T09:26:16.216Z,10.83
2019-01-21T09:28:58.338Z,13.90
2019-01-21T09:31:52.630Z,12.17
2019-01-21T09:34:40.935Z,16.63
2019-01-21T09:37:29.632Z,14.60
2019-01-21T09:40:50.129Z,17.20
2019-01-21T09:43:41.657Z,16.00
2019-01-21T09:46:33.241Z,18.37
2019-01-21T09:49:03.477Z,16.23
2019-01-21T09:51:35.059Z,18.40
2019-01-21T09:54:06.781Z,19.70
2019-01-21T09:56:40.698Z,16.87
2019-01-21T09:59:12.341Z,15.57
2019-01-21T10:01:43.956Z,14.47
2019-01-21T10:04:20.442Z,17.60
2019-01-21T10:06:56.930Z,16.43
2019-01-21T10:09:33.529Z,11.83
2019-01-21T10:12:40.551Z,16.43
2019-01-21T10:15:25.713Z,14.07
2019-01-21T10:18:13.724Z,13.70
2019-01-21T10:21:07.971Z,14.60
2019-01-21T10:24:06.499Z,15.97
2019-01-21T10:27:03.303Z,15.43
2019-01-21T10:30:01.013Z,15.67
2019-01-21T10:32:52.302Z,19.00
2019-01-21T10:35:55.388Z,14.80
2019-01-21T10:39:09.827Z,15.53
2019-01-21T10:42:01.186Z,14.33
2019-01-21T10:44:55.345Z,14.03
2019-01-21T10:47:40.421Z,14.73
2019-01-21T10:50:19.698Z,14.10
2019-01-21T10:53:23.011Z,13.73
2019-01-21T10:56:23.183Z,14.97
2019-01-21T10:59:04.900Z,16.97
2019-01-21T11:02:17.756Z,18.70
2019-01-21T11:05:00.059Z,22.50
2019-01-21T11:07:57.560Z,16.97
2019-01-21T11:10:51.796Z,14.43
2019-01-21T11:13:48.942Z,14.47
2019-01-21T11:16:37.499Z,13.57
2019-01-21T11:19:22.398Z,15.20
2019-01-21T11:21:58.908Z,16.60
2019-01-21T11:24:50.423Z,13.97
2019-01-21T11:27:35.873Z,14.13
2019-01-21T11:30:31.732Z,16.20
2019-01-21T11:33:20.309Z,13.83
2019-01-21T11:36:22.585Z,14.00
2019-01-21T11:39:24.648Z,13.70
2019-01-21T11:42:16.064Z,12.03
2019-01-21T11:45:24.379Z,12.77
2019-01-21T11:48:20.431Z,14.93
2019-01-21T11:51:08.241Z,15.63
2019-01-21T11:53:50.194Z,16.70
2019-01-21T11:56:29.402Z,13.93
2019-01-21T11:59:14.238Z,16.37
2019-01-21T12:01:50.703Z,16.67
2019-01-21T12:04:41.350Z,18.37
2019-01-21T12:07:38.788Z,18.30
2019-01-21T12:10:32.054Z,15.37
2019-01-21T12:13:45.138Z,17.27
2019-01-21T12:16:41.146Z,13.00
2019-01-21T12:19:44.737Z,19.77
2019-01-21T12:22:29.812Z,13.40
2019-01-21T12:25:06.294Z,13.40
2019-01-21T12:28:21.684Z,10.13
2019-01-21T12:31:23.053Z,12.80
2019-01-21T12:33:59.548Z,12.30
2019-01-21T12:36:41.871Z,13.93
2019-01-21T12:39:30.336Z,11.87
2019-01-21T12:42:24.798Z,12.20
2019-01-21T12:45:41.757Z,13.50
2019-01-21T12:48:18.257Z,16.83
2019-01-21T12:51:26.703Z,13.53
2019-01-21T12:54:15.953Z,13.57
2019-01-21T12:56:58.092Z,11.17
2019-01-21T13:00:01.801Z,13.13
2019-01-21T13:02:58.134Z,14.77
2019-01-21T13:06:12.850Z,12.77
2019-01-21T13:09:13.331Z,23.40
2019-01-21T13:12:07.632Z,13.67
2019-01-21T13:14:55.996Z,13.17
2019-01-21T13:17:46.792Z,12.70
2019-01-21T13:20:30.754Z,19.20
2019-01-21T13:23:19.094Z,15.37
2019-01-21T13:26:04.190Z,15.27
2019-01-21T13:28:52.617Z,14.63
2019-01-21T13:31:43.391Z,14.37
2019-01-21T13:34:44.330Z,14.93
2019-01-21T13:37:37.351Z,15.20
2019-01-21T13:40:34.871Z,15.37
2019-01-21T13:43:28.113Z,14.37
2019-01-21T13:46:30.209Z,15.63
2019-01-21T13:49:27.650Z,14.13
2019-01-21T13:52:37.234Z,12.07
2019-01-21T13:55:35.275Z,14.33
2019-01-21T13:58:28.284Z,15.23
2019-01-21T14:01:10.237Z,14.77
2019-01-21T14:04:07.664Z,12.50
2019-01-21T14:06:53.013Z,13.93
2019-01-21T14:09:41.343Z,13.60
2019-01-21T14:12:32.695Z,13.53
2019-01-21T14:15:24.241Z,12.47
2019-01-21T14:18:41.947Z,12.67
2019-01-21T14:21:31.519Z,11.67
2019-01-21T14:24:26.091Z,8.97
2019-01-21T14:27:11.237Z,10.77
2019-01-21T14:29:52.878Z,12.97
2019-01-21T14:32:40.151Z,12.53
2019-01-21T14:35:35.015Z,13.40
2019-01-21T14:38:32.850Z,13.13
2019-01-21T14:41:34.993Z,12.93
2019-01-21T14:44:43.582Z,13.47
2019-01-21T14:47:28.538Z,12.73
2019-01-21T14:50:29.334Z,12.33
2019-01-21T14:53:26.743Z,14.07
2019-01-21T14:56:15.416Z,12.23
2019-01-21T14:59:10.127Z,14.40
2019-01-21T15:01:55.730Z,15.60
2019-01-21T15:04:44.218Z,15.00
2019-01-21T15:07:32.365Z,18.30
2019-01-21T15:10:56.200Z,14.07
2019-01-21T15:13:53.830Z,15.90
2019-01-21T15:16:45.313Z,17.33
2019-01-21T15:19:25.099Z,15.33
2019-01-21T15:22:10.406Z,14.70
2019-01-21T15:24:55.902Z,13.70
2019-01-21T15:27:55.500Z,14.20
2019-01-21T15:30:53.568Z,13.33
2019-01-21T15:33:49.647Z,16.60
2019-01-21T15:36:48.282Z,16.07
2019-01-21T15:39:46.046Z,15.83
2019-01-21T15:42:34.189Z,14.33
2019-01-21T15:45:34.672Z,16.17
2019-01-21T15:48:37.154Z,18.50
2019-01-21T15:51:27.931Z,15.93
2019-01-21T15:54:07.235Z,14.60
2019-01-21T15:57:04.526Z,15.13
2019-01-21T15:59:55.238Z,17.10
2019-01-21T16:03:05.341Z,16.60
2019-01-21T16:05:50.663Z,19.43
2019-01-21T16:08:27.351Z,16.30
2019-01-21T16:11:31.340Z,17.03
2019-01-21T16:14:03.094Z,16.93
2019-01-21T16:16:57.861Z,17.60
2019-01-21T16:19:29.644Z,17.73
2019-01-21T16:22:45.750Z,17.13
2019-01-21T16:25:37.726Z,17.83
2019-01-21T16:28:33.626Z,18.10
2019-01-21T16:31:21.398Z,19.23
2019-01-21T16:34:37.653Z,18.00
2019-01-21T16:37:32.485Z,18.23
2019-01-21T16:40:31.374Z,16.23
2019-01-21T16:43:03.245Z,16.90
2019-01-21T16:45:35.822Z,17.23
2019-01-21T16:48:08.579Z,16.00
2019-01-21T16:50:41.112Z,16.83
2019-01-21T16:53:12.701Z,18.27
2019-01-21T16:55:44.395Z,20.57
2019-01-21T16:58:16.002Z,18.90
2019-01-21T17:00:48.256Z,16.63
2019-01-21T17:03:20.486Z,17.20
2019-01-21T17:05:52.263Z,17.90
2019-01-21T17:08:23.911Z,17.67
2019-01-21T17:10:55.557Z,18.90
2019-01-21T17:13:27.715Z,19.33
2019-01-21T17:15:59.324Z,18.07
2019-01-21T17:18:30.982Z,18.73
2019-01-21T17:21:02.593Z,18.70
2019-01-21T17:23:34.173Z,18.30
2019-01-21T17:26:05.802Z,16.83
2019-01-21T17:28:37.387Z,19.27
2019-01-21T17:31:09.002Z,22.27
2019-01-21T17:33:40.683Z,17.87
2019-01-21T17:36:12.351Z,17.33
2019-01-21T17:38:43.954Z,17.70
2019-01-21T17:41:15.744Z,17.93
2019-01-21T17:43:47.327Z,27.03
2019-01-21T17:46:19.016Z,24.03
2019-01-21T17:48:51.798Z,19.70
2019-01-21T17:51:23.413Z,21.33
2019-01-21T17:53:55.084Z,19.07
2019-01-21T17:56:27.529Z,27.43
2019-01-21T17:58:59.202Z,25.13
2019-01-21T18:01:30.952Z,22.07
2019-01-21T18:04:10.813Z,20.70
2019-01-21T18:06:44.187Z,22.07
2019-01-21T18:09:15.882Z,22.60
2019-01-21T18:11:47.497Z,24.90
2019-01-21T18:14:19.102Z,20.43
2019-01-21T18:16:50.684Z,19.73
2019-01-21T18:19:22.296Z,22.07
2019-01-21T18:21:53.907Z,24.20
2019-01-21T18:24:25.885Z,25.27
2019-01-21T18:26:58.477Z,23.73
2019-01-21T18:29:30.082Z,26.40
2019-01-21T18:32:01.801Z,24.47
2019-01-21T18:34:33.670Z,30.63
2019-01-21T18:37:05.274Z,25.73
2019-01-21T18:39:36.869Z,27.33
2019-01-21T18:42:08.477Z,26.60
2019-01-21T18:44:40.083Z,25.00
2019-01-21T18:47:12.048Z,31.60
2019-01-21T18:49:44.859Z,29.77
2019-01-21T18:52:16.458Z,27.23
2019-01-21T18:54:48.077Z,29.20
2019-01-21T18:57:19.682Z,25.43
2019-01-21T18:59:51.291Z,29.37
2019-01-21T19:02:22.934Z,28.67
2019-01-21T19:04:54.559Z,29.17
2019-01-21T19:07:26.365Z,32.13
2019-01-21T19:09:58.059Z,28.70
2019-01-21T19:12:29.744Z,29.47
2019-01-21T19:15:01.344Z,30.07
2019-01-21T19:17:34.022Z,28.60
2019-01-21T19:20:10.845Z,39.27
2019-01-21T19:22:42.463Z,35.53
2019-01-21T19:25:14.120Z,32.20
2019-01-21T19:27:45.839Z,32.27
2019-01-21T19:30:26.583Z,31.40
2019-01-21T19:32:58.263Z,30.90
2019-01-21T19:35:35.252Z,35.83
2019-01-21T19:38:07.242Z,33.33
2019-01-21T19:40:38.851Z,32.00
2019-01-21T19:43:10.497Z,30.63
2019-01-21T19:45:43.310Z,40.83
2019-01-21T19:48:15.317Z,37.40
2019-01-21T19:50:47.192Z,33.90
2019-01-21T19:53:18.813Z,36.03
2019-01-21T19:55:50.410Z,34.77
2019-01-21T19:58:22.108Z,34.43
2019-01-21T20:00:53.728Z,36.63
2019-01-21T20:03:26.434Z,34.10
2019-01-21T20:05:58.208Z,36.93
2019-01-21T20:08:30.042Z,42.00
2019-01-21T20:11:01.721Z,34.67
2019-01-21T20:13:33.375Z,36.80
2019-01-21T20:16:04.987Z,37.10
2019-01-21T20:18:36.596Z,43.93
2019-01-21T20:21:09.694Z,33.27
2019-01-21T20:23:42.610Z,41.90
2019-01-21T20:26:14.998Z,37.17
2019-01-21T20:28:46.611Z,41.07
2019-01-21T20:31:18.213Z,42.27
2019-01-21T20:33:52.275Z,40.63
2019-01-21T20:36:24.110Z,40.87
2019-01-21T20:38:55.944Z,36.10
2019-01-21T20:41:27.599Z,42.50
2019-01-21T20:43:59.271Z,36.47
2019-01-21T20:46:30.879Z,38.53
2019-01-21T20:49:02.504Z,37.97
2019-01-21T20:51:34.144Z,45.83
2019-01-21T20:54:05.736Z,36.33
2019-01-21T20:56:37.338Z,30.50
2019-01-21T20:59:09.798Z,33.50
2019-01-21T21:01:41.858Z,33.17
2019-01-21T21:04:13.961Z,36.53
2019-01-21T21:06:46.643Z,34.50
2019-01-21T21:09:18.245Z,34.73
2019-01-21T21:11:49.844Z,28.57
2019-01-21T21:14:21.429Z,33.13
2019-01-21T21:16:53.046Z,38.50
2019-01-21T21:19:24.693Z,34.57
2019-01-21T21:21:56.338Z,33.60
2019-01-21T21:24:27.942Z,34.90
2019-01-21T21:26:59.589Z,39.87
2019-01-21T21:29:31.210Z,36.63
2019-01-21T21:32:03.087Z,36.13
2019-01-21T21:34:34.724Z,35.57
2019-01-21T21:37:06.482Z,38.97
2019-01-21T21:39:38.139Z,36.90
2019-01-21T21:42:09.771Z,34.57
2019-01-21T21:44:41.430Z,32.73
2019-01-21T21:47:13.029Z,35.37
2019-01-21T21:49:44.665Z,36.20
2019-01-21T21:52:16.291Z,35.50
2019-01-21T21:54:49.000Z,33.93
2019-01-21T21:57:20.607Z,35.60
2019-01-21T21:59:52.230Z,35.97
2019-01-21T22:02:23.851Z,33.97
2019-01-21T22:04:55.658Z,42.37
2019-01-21T22:07:27.265Z,39.27
2019-01-21T22:09:58.915Z,41.73
2019-01-21T22:12:30.537Z,36.20
2019-01-21T22:15:02.157Z,34.43
2019-01-21T22:17:33.924Z,34.40
2019-01-21T22:20:10.428Z,40.87
2019-01-21T22:22:42.348Z,35.87
2019-01-21T22:25:14.168Z,34.90
2019-01-21T22:27:46.627Z,38.53
2019-01-21T22:30:24.630Z,40.40
2019-01-21T22:32:56.509Z,35.10
2019-01-21T22:35:28.128Z,34.53
2019-01-21T22:37:59.758Z,39.10
2019-01-21T22:40:31.379Z,36.80
2019-01-21T22:43:03.051Z,35.00
2019-01-21T22:45:34.673Z,43.80
2019-01-21T22:48:06.362Z,37.30
2019-01-21T22:50:38.096Z,39.87
2019-01-21T22:53:09.736Z,40.60
2019-01-21T22:55:41.909Z,45.83
2019-01-21T22:58:13.809Z,38.40
2019-01-21T23:00:53.350Z,41.60
2019-01-21T23:03:24.974Z,35.53
2019-01-21T23:05:56.572Z,47.90
2019-01-21T23:08:28.258Z,35.93
2019-01-21T23:10:59.991Z,36.13
2019-01-21T23:13:31.607Z,35.43
2019-01-21T23:16:03.240Z,39.43
2019-01-21T23:18:35.800Z,35.33
2019-01-21T23:21:10.235Z,37.27
2019-01-21T23:23:42.350Z,34.17
2019-01-21T23:26:14.035Z,41.17
2019-01-21T23:28:45.683Z,36.87
2019-01-21T23:31:17.297Z,38.77
2019-01-21T23:33:48.904Z,31.50
2019-01-21T23:36:20.543Z,35.47
2019-01-21T23:38:52.175Z,39.23
2019-01-21T23:41:23.925Z,39.00
2019-01-21T23:43:56.163Z,36.50
2019-01-21T23:46:27.779Z,33.80
2019-01-21T23:48:59.533Z,35.43
2019-01-21T23:51:31.146Z,36.43
2019-01-21T23:54:02.744Z,35.97
2019-01-21T23:56:34.420Z,32.20
2019-01-21T23:59:06.276Z,34.00
